Accueil
METAR-TAF:

METAR-TAF

Aéroports :

Metz-Nancy-Lorraine, France

Aéroport de Metz-Nancy-Lorraine

latitude: 48-59N, longitude: 006-15E, altitude: 264 m

Observation

Le bulletin a été fait il y a 17 minutes, à 07:30 UTC
Vent 15 kt de nord-est
Température -3°C
Humidité 63%
Pression 1015 hPa
Visibilité 10 km ou plus
pas de nuages en-dessous de 1500 mètres et pas de cumulonimbus.

METAR: LFJL 240730Z AUTO 05015KT CAVOK M03/M09 Q1015 TEMPO 07018G30KT

Heure: 08:47 (07:47 UTC)

Prévision

Le bulletin a été fait il y a 2 heures et 47 minutes, à 05:00 UTC
Prévision valable du 24 à 06 UTC au 25 à 06 UTC
Vent 15 kt de est/nord-est
Visibilité 10 km ou plus
pas de nuages en-dessous de 1500 mètres et pas de cumulonimbus.
Temporairement
du 24 à 09 UTC au 25 à 06 UTC
Vent 18 kt de est/nord-est avec des rafales jusqu'à 30 kt

TAF: LFJL 240500Z 2406/2506 06015KT CAVOK TEMPO 2409/2506 07018G30KT

Observations et prévisions météorologiques de plus de 4000 aéroports (messages METAR et TAF).

Les stations disponibles sont représentées par des disques jaunes et rouges sur la carte.

Passer la souris dessus pour voir le nom de la station.

Cliquer dessus pour voir les observations et prévisions météorologiques.

Pour changer de carte: cliquez sur les boutons verts avec une croix noire pour zoomer, sur le bouton vert avec un tiret pour effectuer un zoom arrière, ou sur les flèches vertes pour les cartes adjacentes.


METAR-TAF: